Time;durP1;ratioP1;P1;durP2;ratioP2;P2;SDS_P1;SDS_P2;PMS_P1;PMS_P2;Temp;Humidity;BMP_temperature;BMP_pressure;BME280_temperature;BME280_humidity;BME280_pressure;Samples;Min_cycle;Max_cycle;Signal;HPM_P1;HPM_P2
2023/12/16 02:14:31;;;;;;;73.50;23.00;;;;;;;5.12;100.00;102293.52;214771;1298;139902;-92
2023/12/16 02:19:33;;;;;;;69.70;23.10;;;;;;;5.12;100.00;102291.92;214395;1298;139080;-90
2023/12/16 02:24:36;;;;;;;74.40;21.60;;;;;;;5.15;100.00;102300.19;214098;1296;140024;-91
2023/12/16 02:29:37;;;;;;;75.70;22.60;;;;;;;5.16;100.00;102305.80;214590;1298;98420;-91
2023/12/16 02:34:39;;;;;;;72.30;22.60;;;;;;;5.17;100.00;102311.90;213855;1298;139776;-91
2023/12/16 02:39:47;;;;;;;75.20;20.50;;;;;;;5.19;100.00;102310.24;214117;1298;140717;-90
2023/12/16 02:44:48;;;;;;;78.60;23.80;;;;;;;5.20;100.00;102315.47;214240;1297;139291;-90
2023/12/16 02:49:53;;;;;;;75.50;22.40;;;;;;;5.22;100.00;102335.63;213724;1296;141663;-89
2023/12/16 02:54:55;;;;;;;71.80;21.70;;;;;;;5.23;100.00;102341.73;214411;1295;139304;-92
2023/12/16 02:59:56;;;;;;;79.70;23.30;;;;;;;5.25;100.00;102342.30;213842;1296;140647;-90
2023/12/16 03:04:57;;;;;;;73.70;22.10;;;;;;;5.25;100.00;102349.83;214454;1296;139348;-91
2023/12/16 03:09:59;;;;;;;74.00;22.80;;;;;;;5.26;100.00;102356.10;214178;1296;140277;-95
2023/12/16 03:15:00;;;;;;;75.50;23.00;;;;;;;5.27;100.00;102360.94;214629;1296;139926;-90
2023/12/16 03:20:00;;;;;;;74.90;23.30;;;;;;;5.29;100.00;102355.80;214193;1297;140014;-92
2023/12/16 03:25:14;;;;;;;69.00;21.70;;;;;;;5.28;100.00;102358.91;214663;1296;139363;-92
2023/12/16 03:30:16;;;;;;;82.10;25.90;;;;;;;5.29;100.00;102353.11;214272;1296;139987;-90
2023/12/16 03:35:18;;;;;;;66.90;21.20;;;;;;;5.29;100.00;102343.72;214706;1298;97948;-92
2023/12/16 03:40:19;;;;;;;67.10;21.20;;;;;;;5.29;100.00;102335.09;214051;1295;140122;-91
2023/12/16 03:45:19;;;;;;;58.10;20.00;;;;;;;5.29;100.00;102336.19;214655;1296;139224;-91
2023/12/16 03:50:20;;;;;;;66.50;21.50;;;;;;;5.28;100.00;102351.11;214086;1294;140383;-90
2023/12/16 03:55:21;;;;;;;56.20;21.10;;;;;;;5.28;100.00;102368.41;214481;1296;139783;-92
2023/12/16 04:00:22;;;;;;;70.20;24.00;;;;;;;5.28;100.00;102375.67;213917;1296;140853;-91
2023/12/16 04:05:23;;;;;;;66.70;21.40;;;;;;;5.28;100.00;102375.67;214777;1295;97979;-92
2023/12/16 04:10:33;;;;;;;62.30;24.60;;;;;;;5.30;100.00;102380.84;214436;1295;139736;-94
2023/12/16 04:15:35;;;;;;;67.40;23.70;;;;;;;5.29;100.00;102383.24;214875;1298;139269;-93
2023/12/16 04:20:52;;;;;;;66.10;24.10;;;;;;;5.30;100.00;102369.96;214666;1296;140393;-92
2023/12/16 04:26:14;;;;;;;66.50;23.20;;;;;;;5.31;100.00;102359.36;214670;1295;139206;-91
2023/12/16 04:31:34;;;;;;;63.80;20.30;;;;;;;5.32;100.00;102361.15;214547;1295;140651;-91
2023/12/16 04:36:57;;;;;;;62.30;22.10;;;;;;;5.33;100.00;102356.01;214556;1296;140011;-92
2023/12/16 04:42:03;;;;;;;59.10;20.40;;;;;;;5.34;100.00;102364.95;214336;1296;140280;-92
2023/12/16 04:47:07;;;;;;;59.00;21.50;;;;;;;5.35;100.00;102367.93;214891;1296;138945;-92
2023/12/16 04:52:07;;;;;;;46.20;17.80;;;;;;;5.36;100.00;102370.30;214331;1295;140705;-92
2023/12/16 04:57:17;;;;;;;57.10;20.40;;;;;;;5.36;100.00;102354.16;214633;1297;139133;-91
2023/12/16 05:02:18;;;;;;;53.60;19.30;;;;;;;5.37;100.00;102354.14;214301;1296;140411;-91
2023/12/16 05:07:36;;;;;;;56.90;20.80;;;;;;;5.38;100.00;102351.98;214999;1293;139095;-92
2023/12/16 05:12:39;;;;;;;51.30;17.40;;;;;;;5.38;100.00;102353.84;214318;1298;140071;-93
2023/12/16 05:18:00;;;;;;;56.30;19.40;;;;;;;5.40;100.00;102359.39;214938;1294;97872;-94
2023/12/16 05:23:29;;;;;;;52.90;19.60;;;;;;;5.42;100.00;102373.95;214992;1293;140601;-95
2023/12/16 05:34:39;;;;;;;46.50;17.90;;;;;;;5.44;100.00;102375.88;212680;1295;97993;-88
2023/12/16 05:46:36;;;;;;;52.70;19.30;;;;;;;5.48;100.00;102376.70;214910;1293;98017;-89
2023/12/16 05:58:12;;;;;;;;;;;;;;;;;;;;;
2023/12/16 06:34:46;;;;;;;;;;;;;;;;;;;;;
2023/12/16 06:40:52;;;;;;;;;;;;;;;;;;;;;
2023/12/16 07:04:20;;;;;;;;;;;;;;;;;;;;;
2023/12/16 07:10:31;;;;;;;;;;;;;;;;;;;;;
2023/12/16 07:22:27;;;;;;;30.50;12.10;;;;;;;5.80;100.00;102434.41;210711;1311;141660;-89
2023/12/16 07:28:18;;;;;;;;;;;;;;;;;;;;;
2023/12/16 08:04:18;;;;;;;;;;;;;;;;;;;;;
2023/12/16 08:34:39;;;;;;;;;;;;;;;;;;;;;
2023/12/16 08:53:06;;;;;;;42.80;16.60;;;;;;;6.14;100.00;102421.45;209540;1322;141113;-89
2023/12/16 08:58:58;;;;;;;39.10;15.80;;;;;;;6.14;100.00;102420.86;209915;1317;110653;-89
2023/12/16 09:10:13;;;;;;;34.80;15.30;;;;;;;6.20;100.00;102433.66;209964;1317;141178;-87
2023/12/16 09:15:15;;;;;;;36.10;14.70;;;;;;;6.22;100.00;102422.85;213486;1293;106119;-85
2023/12/16 09:20:16;;;;;;;35.80;14.00;;;;;;;6.25;100.00;102429.98;214066;1293;141153;-86
2023/12/16 09:25:17;;;;;;;39.00;15.00;;;;;;;6.26;100.00;102433.72;214805;1293;139289;-86
2023/12/16 09:30:19;;;;;;;43.70;14.50;;;;;;;6.28;100.00;102431.55;214484;1293;140387;-85
2023/12/16 09:35:19;;;;;;;39.90;16.00;;;;;;;6.30;100.00;102429.22;217054;1293;139859;-85
2023/12/16 09:40:20;;;;;;;37.40;14.90;;;;;;;6.33;100.00;102428.06;216482;1293;142549;-84
2023/12/16 09:45:20;;;;;;;33.60;13.20;;;;;;;6.37;100.00;102429.52;213532;1293;97997;-85
2023/12/16 09:50:21;;;;;;;41.10;14.10;;;;;;;6.40;100.00;102427.46;212503;1293;457999;-85
2023/12/16 09:55:22;;;;;;;43.40;14.00;;;;;;;6.44;100.00;102421.76;213039;1293;139360;-85
2023/12/16 10:00:23;;;;;;;33.30;13.80;;;;;;;6.47;100.00;102421.14;212673;1295;141104;-85
2023/12/16 10:05:26;;;;;;;33.30;15.00;;;;;;;6.52;100.00;102426.69;213100;1293;139543;-86
2023/12/16 10:10:27;;;;;;;32.40;13.20;;;;;;;6.58;100.00;102426.86;212490;1294;140770;-84
2023/12/16 10:15:32;;;;;;;28.50;12.20;;;;;;;6.64;100.00;102419.98;213052;1294;98001;-85
2023/12/16 10:20:34;;;;;;;33.40;12.30;;;;;;;6.70;100.00;102415.33;213125;1297;139977;-83
2023/12/16 10:25:36;;;;;;;29.20;11.30;;;;;;;6.80;100.00;102408.20;213267;1294;140573;-85
2023/12/16 10:30:36;;;;;;;31.20;12.10;;;;;;;6.88;100.00;102399.84;212849;1293;142043;-85
2023/12/16 10:35:37;;;;;;;33.20;11.30;;;;;;;6.96;100.00;102391.86;213431;1293;139993;-86
2023/12/16 10:40:38;;;;;;;35.60;11.20;;;;;;;7.04;100.00;102404.92;213627;1293;140987;-86
2023/12/16 10:45:39;;;;;;;24.50;11.60;;;;;;;7.10;100.00;102399.23;214277;1293;139322;-85
2023/12/16 10:50:45;;;;;;;24.70;10.20;;;;;;;7.16;100.00;102402.09;213702;1293;140156;-86
2023/12/16 10:55:50;;;;;;;;;;;;;;;7.20;100.00;102400.52;214309;1293;139895;-85
2023/12/16 11:00:52;;;;;;;42.30;10.00;;;;;;;7.22;100.00;102400.05;213944;1293;126959;-86
2023/12/16 11:06:00;;;;;;;23.50;9.90;;;;;;;7.23;100.00;102398.00;214223;1293;139220;-86
2023/12/16 11:11:01;;;;;;;30.80;10.90;;;;;;;7.23;100.00;102389.17;213711;1293;141281;-85
2023/12/16 11:16:18;;;;;;;27.00;10.90;;;;;;;7.23;100.00;102388.19;215263;1293;139292;-86
2023/12/16 11:21:20;;;;;;;24.70;9.80;;;;;;;7.23;100.00;102385.83;216584;1292;140039;-86
2023/12/16 11:26:23;;;;;;;29.70;10.20;;;;;;;7.24;100.00;102386.69;216614;1293;139097;-86
2023/12/16 11:31:26;;;;;;;24.70;11.70;;;;;;;7.26;100.00;102389.39;212721;1293;139989;-84
2023/12/16 11:36:55;;;;;;;27.30;11.00;;;;;;;7.26;100.00;102385.12;213164;1296;139584;-84
2023/12/16 11:41:56;;;;;;;34.40;13.00;;;;;;;7.26;100.00;102379.35;213625;1293;140303;-84
2023/12/16 11:46:58;;;;;;;26.80;11.70;;;;;;;7.24;100.00;102378.14;213081;1293;139582;-84
2023/12/16 11:51:59;;;;;;;31.50;12.80;;;;;;;7.21;100.00;102375.31;212365;1294;140664;-85
2023/12/16 11:56:59;;;;;;;36.90;13.80;;;;;;;7.18;100.00;102358.63;212949;1294;99279;-83
2023/12/16 12:02:00;;;;;;;30.80;11.60;;;;;;;7.14;100.00;102348.30;212517;1293;141009;-84
2023/12/16 12:07:00;;;;;;;29.50;12.60;;;;;;;7.13;100.00;102345.75;212887;1293;138888;-85
2023/12/16 12:12:04;;;;;;;23.80;11.60;;;;;;;7.12;100.00;102342.98;212674;1298;140331;-83
2023/12/16 12:17:05;;;;;;;27.30;12.80;;;;;;;7.11;100.00;102339.78;213166;1293;139074;-85
2023/12/16 12:22:07;;;;;;;35.50;12.30;;;;;;;7.11;100.00;102344.91;213148;1293;141175;-84
2023/12/16 12:27:08;;;;;;;37.30;12.80;;;;;;;7.12;100.00;102341.77;214858;1293;97910;-83
2023/12/16 12:32:11;;;;;;;30.40;13.10;;;;;;;7.13;100.00;102331.73;214567;1293;140190;-86
2023/12/16 12:37:12;;;;;;;29.90;12.50;;;;;;;7.14;100.00;102320.08;214944;1293;139668;-85
2023/12/16 12:42:12;;;;;;;31.70;12.40;;;;;;;7.15;100.00;102314.88;213842;1293;140501;-86
2023/12/16 12:47:25;;;;;;;29.00;11.90;;;;;;;7.16;100.00;102317.52;214335;1293;139313;-85
2023/12/16 12:52:38;;;;;;;36.70;14.70;;;;;;;7.18;100.00;102315.02;214035;1293;140742;-84
2023/12/16 12:57:39;;;;;;;34.90;12.60;;;;;;;7.18;100.00;102310.97;214459;1298;139122;-85
2023/12/16 13:02:40;;;;;;;28.80;12.60;;;;;;;7.18;100.00;102311.25;214996;1293;140794;-85
2023/12/16 13:07:41;;;;;;;29.70;12.70;;;;;;;7.18;100.00;102306.30;216985;1293;138989;-85
2023/12/16 13:12:41;;;;;;;43.70;13.60;;;;;;;7.18;100.00;102296.67;215499;1293;140060;-84
2023/12/16 13:17:46;;;;;;;33.10;13.60;;;;;;;7.15;100.00;102285.95;213356;1295;152857;-85
2023/12/16 13:22:47;;;;;;;38.40;13.80;;;;;;;7.12;100.00;102277.09;212685;1298;140896;-85
2023/12/16 13:27:47;;;;;;;34.20;13.00;;;;;;;7.09;100.00;102270.88;212964;1296;139970;-85
2023/12/16 13:32:48;;;;;;;37.20;14.00;;;;;;;7.04;100.00;102268.74;212785;1296;141323;-85
2023/12/16 13:37:49;;;;;;;33.90;12.80;;;;;;;7.02;100.00;102263.48;212949;1293;139867;-85
2023/12/16 13:42:49;;;;;;;24.90;12.30;;;;;;;7.00;100.00;102258.65;212381;1294;140380;-86
2023/12/16 13:47:50;;;;;;;31.20;12.80;;;;;;;6.96;100.00;102258.63;212996;1293;139726;-86
2023/12/16 13:52:50;;;;;;;25.70;11.40;;;;;;;6.93;100.00;102265.01;212448;1297;144083;-85
2023/12/16 13:57:51;;;;;;;32.30;12.20;;;;;;;6.90;100.00;102268.29;213029;1295;139877;-87
2023/12/16 14:02:51;;;;;;;34.30;12.10;;;;;;;6.87;100.00;102274.77;213388;1293;140849;-87
2023/12/16 14:07:52;;;;;;;34.20;11.00;;;;;;;6.85;100.00;102263.69;214441;1296;139229;-85
2023/12/16 14:12:53;;;;;;;27.80;11.30;;;;;;;6.82;100.00;102251.17;216180;1293;141043;-87
2023/12/16 14:17:53;;;;;;;29.00;12.00;;;;;;;6.80;100.00;102248.00;217555;1293;139582;-85
2023/12/16 14:22:53;;;;;;;32.40;13.20;;;;;;;6.77;100.00;102240.80;216813;1293;141514;-86
2023/12/16 14:27:54;;;;;;;22.00;9.70;;;;;;;6.73;100.00;102230.14;217445;1293;139487;-87
2023/12/16 14:32:55;;;;;;;27.10;9.70;;;;;;;6.69;100.00;102228.81;214536;1293;140635;-85
2023/12/16 14:37:56;;;;;;;30.50;10.40;;;;;;;6.64;100.00;102232.75;214486;1293;139409;-86
2023/12/16 14:42:56;;;;;;;31.50;10.40;;;;;;;6.58;100.00;102218.40;213884;1294;140591;-85
2023/12/16 14:47:57;;;;;;;22.40;11.20;;;;;;;6.53;100.00;102213.24;215595;1293;139525;-86
2023/12/16 14:52:58;;;;;;;25.80;9.30;;;;;;;6.48;100.00;102212.48;216437;1293;140869;-87
2023/12/16 14:57:58;;;;;;;25.20;9.50;;;;;;;6.44;100.00;102226.63;215779;1293;139313;-87
2023/12/16 15:02:59;;;;;;;25.80;9.10;;;;;;;6.39;100.00;102227.44;212864;1298;140112;-91
2023/12/16 15:07:59;;;;;;;26.40;10.40;;;;;;;6.34;100.00;102224.80;213158;1296;139839;-91
2023/12/16 15:13:04;;;;;;;24.30;9.50;;;;;;;6.29;100.00;102213.17;212848;1294;140546;-91
2023/12/16 15:18:05;;;;;;;25.20;9.80;;;;;;;6.23;100.00;102208.70;212973;1294;139148;-91
2023/12/16 15:23:06;;;;;;;26.50;11.20;;;;;;;6.16;100.00;102216.20;212600;1293;140259;-92
2023/12/16 15:28:06;;;;;;;25.50;10.50;;;;;;;6.12;100.00;102217.06;212950;1293;139300;-91
2023/12/16 15:33:08;;;;;;;27.70;11.60;;;;;;;6.08;100.00;102215.39;212742;1293;140313;-90
2023/12/16 15:38:08;;;;;;;24.60;10.50;;;;;;;6.04;100.00;102207.66;212978;1293;139212;-87
2023/12/16 15:43:09;;;;;;;29.60;11.40;;;;;;;6.01;100.00;102194.77;212820;1293;140360;-91
2023/12/16 15:48:10;;;;;;;26.00;11.30;;;;;;;5.99;100.00;102191.38;213392;1293;139573;-90
2023/12/16 15:53:11;;;;;;;37.90;12.10;;;;;;;5.98;100.00;102181.98;213066;1293;140459;-90
2023/12/16 15:58:12;;;;;;;27.20;9.60;;;;;;;5.96;100.00;102189.50;214618;1293;139883;-92
2023/12/16 16:03:12;;;;;;;26.50;9.60;;;;;;;5.95;100.00;102189.52;214034;1293;140189;-90
2023/12/16 16:08:13;;;;;;;25.90;12.00;;;;;;;5.96;100.00;102184.71;214365;1294;139588;-91
2023/12/16 16:13:14;;;;;;;30.10;10.00;;;;;;;5.98;100.00;102175.75;214007;1296;141657;-89
2023/12/16 16:18:15;;;;;;;25.80;9.00;;;;;;;6.00;100.00;102169.17;214561;1293;139804;-90
2023/12/16 16:23:16;;;;;;;26.50;8.00;;;;;;;6.03;100.00;102167.07;213990;1294;140992;-92
2023/12/16 16:28:17;;;;;;;24.10;8.30;;;;;;;6.06;100.00;102166.88;214327;1293;139590;-91
2023/12/16 16:33:17;;;;;;;22.10;8.20;;;;;;;6.09;100.00;102170.02;215600;1293;139784;-92
2023/12/16 16:38:18;;;;;;;19.60;7.30;;;;;;;6.11;100.00;102176.63;217003;1293;138912;-87
2023/12/16 16:43:20;;;;;;;21.40;7.80;;;;;;;6.14;100.00;102172.48;215230;1294;139971;-94
2023/12/16 16:48:20;;;;;;;24.20;6.80;;;;;;;6.15;100.00;102171.69;214300;1296;140328;-91
2023/12/16 16:53:24;;;;;;;19.20;8.00;;;;;;;6.17;100.00;102171.48;214140;1294;140493;-93
2023/12/16 16:58:24;;;;;;;28.40;7.00;;;;;;;6.16;100.00;102173.71;213331;1296;139963;-91
2023/12/16 17:03:25;;;;;;;25.50;7.10;;;;;;;6.16;100.00;102183.60;212779;1296;139850;-89
2023/12/16 17:08:26;;;;;;;25.70;10.10;;;;;;;6.15;100.00;102175.19;213336;1293;139381;-90
2023/12/16 17:13:26;;;;;;;19.00;7.30;;;;;;;6.15;100.00;102176.11;213331;1295;139790;-88
2023/12/16 17:18:27;;;;;;;24.00;7.90;;;;;;;6.15;100.00;102172.17;213540;1295;139599;-92
2023/12/16 17:23:28;;;;;;;19.70;7.80;;;;;;;6.15;100.00;102172.00;212935;1298;140799;-89
2023/12/16 17:28:32;;;;;;;23.40;8.40;;;;;;;6.16;100.00;102161.36;213238;1296;139287;-90
2023/12/16 17:33:32;;;;;;;23.60;9.80;;;;;;;6.17;100.00;102147.26;213037;1298;140614;-90
2023/12/16 17:38:33;;;;;;;34.70;11.30;;;;;;;6.18;100.00;102145.39;213447;1296;139183;-89
2023/12/16 17:43:33;;;;;;;27.40;8.80;;;;;;;6.20;100.00;102145.39;212951;1297;139831;-90
2023/12/16 17:48:34;;;;;;;21.50;8.10;;;;;;;6.21;100.00;102146.58;213644;1298;139627;-91
2023/12/16 17:53:35;;;;;;;18.60;7.90;;;;;;;6.21;100.00;102139.55;213041;1298;141288;-92
2023/12/16 17:58:36;;;;;;;24.10;7.90;;;;;;;6.22;100.00;102144.61;213468;1296;140751;-88
2023/12/16 18:03:36;;;;;;;26.20;8.70;;;;;;;6.23;100.00;102148.25;212879;1296;139828;-91
2023/12/16 18:08:37;;;;;;;25.60;8.50;;;;;;;6.26;100.00;102151.43;213298;1295;138802;-89
2023/12/16 18:13:37;;;;;;;20.80;9.20;;;;;;;6.26;100.00;102141.30;213378;1293;230332;-90
2023/12/16 18:18:41;;;;;;;19.90;8.20;;;;;;;6.28;100.00;102145.70;213483;1293;139055;-90
2023/12/16 18:23:42;;;;;;;19.30;7.60;;;;;;;6.29;100.00;102154.11;213260;1293;140312;-89
2023/12/16 18:28:44;;;;;;;22.20;8.10;;;;;;;6.30;100.00;102149.36;214011;1294;139637;-89
2023/12/16 18:33:45;;;;;;;21.60;8.20;;;;;;;6.32;100.00;102147.15;213073;1298;141137;-90
2023/12/16 18:38:48;;;;;;;24.80;10.10;;;;;;;6.32;100.00;102145.07;213601;1293;98389;-91
2023/12/16 18:43:48;;;;;;;27.20;9.70;;;;;;;6.32;100.00;102144.77;213060;1297;141694;-92
2023/12/16 18:48:49;;;;;;;23.20;8.80;;;;;;;6.33;100.00;102145.65;213415;1294;139014;-92
2023/12/16 18:53:50;;;;;;;22.30;9.60;;;;;;;6.33;100.00;102151.43;213157;1293;139882;-91
2023/12/16 18:58:51;;;;;;;20.90;7.90;;;;;;;6.33;100.00;102155.05;213256;1295;138924;-89
2023/12/16 19:03:51;;;;;;;24.30;8.40;;;;;;;6.34;100.00;102150.71;212997;1293;140195;-90
2023/12/16 19:08:52;;;;;;;21.20;8.40;;;;;;;6.34;100.00;102145.09;213747;1296;98296;-90
2023/12/16 19:13:52;;;;;;;22.40;8.60;;;;;;;6.34;100.00;102139.80;213300;1295;139820;-91
2023/12/16 19:18:53;;;;;;;17.80;7.70;;;;;;;6.34;100.00;102137.45;213905;1293;139041;-91
2023/12/16 19:23:53;;;;;;;25.70;8.70;;;;;;;6.35;100.00;102138.60;213112;1297;139904;-91
2023/12/16 19:28:54;;;;;;;23.20;10.50;;;;;;;6.35;100.00;102136.19;213868;1298;138799;-87
2023/12/16 19:33:54;;;;;;;20.80;8.60;;;;;;;6.36;100.00;102122.99;213275;1293;140205;-90
2023/12/16 19:38:55;;;;;;;24.40;10.00;;;;;;;6.36;100.00;102122.06;213697;1296;98433;-89
2023/12/16 19:43:56;;;;;;;20.80;9.40;;;;;;;6.35;100.00;102120.16;213063;1294;140299;-90
2023/12/16 19:48:59;;;;;;;25.50;9.30;;;;;;;6.35;100.00;102127.71;213458;1295;140332;-88
2023/12/16 19:54:02;;;;;;;22.50;10.40;;;;;;;6.34;100.00;102142.94;214481;1293;141033;-92
2023/12/16 19:59:03;;;;;;;22.50;9.80;;;;;;;6.36;100.00;102143.95;214346;1294;139832;-91
2023/12/16 20:04:03;;;;;;;24.90;9.50;;;;;;;6.36;100.00;102135.08;213885;1293;140086;-91
2023/12/16 20:09:04;;;;;;;27.40;11.10;;;;;;;6.36;100.00;102131.23;214299;1293;97947;-88
2023/12/16 20:14:05;;;;;;;22.90;10.90;;;;;;;6.37;100.00;102134.30;213800;1294;140082;-88
2023/12/16 20:19:05;;;;;;;31.00;12.10;;;;;;;6.37;100.00;102126.84;214566;1298;138918;-90
2023/12/16 20:24:06;;;;;;;21.00;9.60;;;;;;;6.38;100.00;102123.05;212655;1295;140841;-90
2023/12/16 20:29:06;;;;;;;24.70;10.60;;;;;;;6.39;100.00;102127.70;213195;1293;139011;-90
2023/12/16 20:34:07;;;;;;;22.60;10.30;;;;;;;6.39;100.00;102132.07;212285;1298;141293;-89
2023/12/16 20:44:27;;;;;;;27.00;10.90;;;;;;;6.39;100.00;102119.80;212560;1293;140726;-87
2023/12/16 20:49:28;;;;;;;23.90;10.60;;;;;;;6.38;100.00;102123.08;212743;1293;139538;-86
2023/12/16 20:54:32;;;;;;;25.70;11.40;;;;;;;6.39;100.00;102126.36;212258;1298;141484;-88
2023/12/16 20:59:32;;;;;;;30.50;12.70;;;;;;;6.40;100.00;102120.56;212908;1296;140126;-86
2023/12/16 21:04:34;;;;;;;31.70;12.00;;;;;;;6.40;100.00;102120.77;212621;1296;140320;-85
2023/12/16 21:09:35;;;;;;;29.50;11.50;;;;;;;6.40;100.00;102111.07;213992;1294;97979;-88
2023/12/16 21:14:37;;;;;;;28.30;12.00;;;;;;;6.41;100.00;102096.25;213155;1299;140241;-88
2023/12/16 21:19:38;;;;;;;34.10;12.80;;;;;;;6.41;100.00;102086.44;213661;1296;138971;-87
2023/12/16 21:24:39;;;;;;;26.30;11.60;;;;;;;6.43;100.00;102073.00;213416;1294;139857;-88
2023/12/16 21:29:42;;;;;;;28.70;11.20;;;;;;;6.43;100.00;102063.48;213788;1297;140019;-88
2023/12/16 21:34:43;;;;;;;26.70;10.70;;;;;;;6.45;100.00;102062.95;213285;1296;154706;-88
2023/12/16 21:39:44;;;;;;;25.80;10.90;;;;;;;6.46;100.00;102062.42;213459;1294;140066;-87
2023/12/16 21:44:44;;;;;;;29.90;11.00;;;;;;;6.48;100.00;102064.23;215505;1293;139303;-87
2023/12/16 21:49:46;;;;;;;24.00;10.00;;;;;;;6.49;100.00;102061.91;216440;1295;141147;-88
2023/12/16 21:54:47;;;;;;;24.10;10.70;;;;;;;6.52;100.00;102046.59;215435;1295;139986;-87
2023/12/16 21:59:57;;;;;;;22.30;9.70;;;;;;;6.54;100.00;102035.64;212848;1298;141555;-88
2023/12/16 22:04:58;;;;;;;26.00;10.30;;;;;;;6.56;100.00;102035.39;213199;1298;139200;-88
2023/12/16 22:09:59;;;;;;;21.40;10.10;;;;;;;6.57;100.00;102037.98;212716;1299;140787;-87
2023/12/16 22:14:59;;;;;;;28.90;11.60;;;;;;;6.58;100.00;102028.48;213425;1299;99334;-86
2023/12/16 22:20:00;;;;;;;24.90;10.50;;;;;;;6.59;100.00;102024.63;212721;1299;140294;-86
2023/12/16 22:25:03;;;;;;;26.40;11.10;;;;;;;6.60;100.00;102013.21;213509;1299;139438;-87
2023/12/16 22:30:04;;;;;;;28.90;10.70;;;;;;;6.63;100.00;102005.27;212906;1299;140472;-88
2023/12/16 22:35:05;;;;;;;31.80;11.60;;;;;;;6.64;100.00;102016.06;213500;1298;139239;-88
2023/12/16 22:40:06;;;;;;;29.90;12.80;;;;;;;6.65;100.00;102032.08;212916;1296;141042;-87
2023/12/16 22:45:10;;;;;;;28.80;11.00;;;;;;;6.66;100.00;102034.89;213473;1295;98074;-87
2023/12/16 22:50:10;;;;;;;28.10;11.40;;;;;;;6.69;100.00;102032.80;212579;1299;140263;-88
2023/12/16 22:55:11;;;;;;;27.20;11.90;;;;;;;6.71;100.00;102040.58;213350;1293;139003;-87
2023/12/16 23:00:23;;;;;;;21.90;11.50;;;;;;;6.73;100.00;102043.27;212964;1299;140649;-87
2023/12/16 23:05:24;;;;;;;27.40;10.80;;;;;;;6.76;100.00;102047.95;213382;1298;139482;-87
2023/12/16 23:10:24;;;;;;;30.70;12.00;;;;;;;6.79;100.00;102054.22;212395;1296;140695;-85
2023/12/16 23:15:25;;;;;;;29.70;12.80;;;;;;;6.81;100.00;102057.90;213763;1296;97968;-88
2023/12/16 23:20:26;;;;;;;31.80;11.50;;;;;;;6.83;100.00;102062.38;212962;1295;140407;-87
2023/12/16 23:25:27;;;;;;;25.60;10.60;;;;;;;6.85;100.00;102055.77;213389;1299;139518;-87
2023/12/16 23:30:28;;;;;;;25.90;10.90;;;;;;;6.87;100.00;102061.73;212467;1296;140140;-86
2023/12/16 23:35:29;;;;;;;31.50;11.40;;;;;;;6.88;100.00;102061.59;212817;1295;139243;-87
2023/12/16 23:40:30;;;;;;;25.10;10.50;;;;;;;6.89;100.00;102048.91;212370;1298;140471;-89
2023/12/16 23:45:30;;;;;;;29.60;10.90;;;;;;;6.91;100.00;102051.27;212819;1299;98100;-89
2023/12/16 23:50:31;;;;;;;22.80;10.10;;;;;;;6.92;100.00;102048.34;212308;1298;140484;-86
2023/12/16 23:55:31;;;;;;;25.20;11.00;;;;;;;6.94;100.00;102046.49;212880;1295;139035;-87
